Latest Weather Observations for Frederick Reef

IDQ60801

Issued at 5:02 pm EST Friday 19 December 2014 (issued every 30 minutes, with the page automatically refreshed every 10 minutes)

About weather observations | Map of weather stations | Latest weather observations for QLD | Other Formats
Station Details ID: 200701 Name: FREDERICK REEF Lat: -20.94 Lon: 154.40 Height: 4.9 m
Data from the previous 72 hours. | See also: Recent months for locations in Queensland
Date/Time
EST
Temp
°C
App
Temp
°C
Dew
Point
Rel
Hum
%
Delta-T
°C
Wind Press
QNH
hPa
Press
MSL
hPa
Rain
since 9 am
mm
Dir
 
Spd
km/h
Gust
km/h
Spd
kts
Gust
kts
19/05:00pm 27.3 - - - - WSW 11 13 6 7 1011.0 - -
19/04:30pm 27.6 - - - - WSW 9 11 5 6 1010.9 - -
19/04:00pm 27.2 - - - - WSW 11 13 6 7 1010.8 1010.4 -
19/03:30pm 27.6 - - - - W 2 11 1 6 1010.6 - -
19/03:00pm 27.0 - - - - WSW 9 11 5 6 1010.7 1010.4 -
19/02:30pm 28.0 - - - - W 2 6 1 3 1010.8 - -
19/02:00pm 28.3 - - - - W 4 7 2 4 1010.9 1010.6 -
19/01:30pm 27.5 - - - - W 2 9 1 5 1010.9 - -
19/01:00pm 26.9 - - - - W 11 15 6 8 1010.9 - -
19/12:30pm 26.7 - - - - W 11 15 6 8 1011.0 - -
19/12:00pm 26.7 - - - - W 13 15 7 8 1011.3 1011.0 -
19/11:30am 26.7 - - - - W 7 15 4 8 1011.8 - -
19/11:00am 26.9 - - - - WSW 6 15 3 8 1012.0 1011.7 -
19/10:30am 26.7 - - - - WSW 4 15 2 8 1012.2 - -
19/10:00am 26.9 - - - - WSW 4 9 2 5 1012.4 - -
19/09:30am 26.9 - - - - W 7 15 4 8 1012.3 - -
19/09:00am 26.7 - - - - WSW 9 15 5 8 1012.6 1012.4 -
19/08:30am 26.6 - - - - W 13 19 7 10 1012.5 - -
19/08:00am 26.8 - - - - WSW 9 15 5 8 1012.6 - -
19/07:30am 27.2 - - - - W 9 15 5 8 1012.8 - -
19/07:00am 26.6 - - - - W 9 13 5 7 1013.0 1012.7 -
19/06:30am 26.8 - - - - W 6 13 3 7 1013.5 - -
19/06:00am 26.5 - - - - NE 17 22 9 12 1012.5 1012.4 -
19/05:30am 26.1 - - - - ENE 11 15 6 8 1012.5 - -
19/05:00am 25.8 - - - - ENE 15 20 8 11 1011.9 1011.8 -
19/04:30am 25.8 - - - - NNW 17 20 9 11 1011.6 - -
19/04:00am 25.7 - - - - WNW 19 20 10 11 1011.6 - -
19/03:30am 25.7 - - - - NW 17 20 9 11 1011.4 - -
19/03:00am 25.8 - - - - N 17 22 9 12 1011.5 1011.1 -
19/02:30am 25.8 - - - - W 15 20 8 11 1011.6 - -
19/02:00am 25.9 - - - - WNW 17 22 9 12 1011.7 - -
19/01:30am 25.9 - - - - NW 17 24 9 13 1011.7 - -
19/01:00am 26.0 - - - - NW 19 20 10 11 1012.0 - -
19/12:30am 25.9 - - - - ESE 17 22 9 12 1012.4 - -
19/12:00am 26.0 - - - - NE 19 20 10 11 1012.7 - -
 
Date/Time
EST
Temp
°C
App
Temp
°C
Dew
Point
Rel
Hum
%
Delta-T
°C
Wind Press
QNH
hPa
Press
MSL
hPa
Rain
since 9 am
mm
Dir
 
Spd
km/h
Gust
km/h
Spd
kts
Gust
kts
18/11:30pm 26.0 - - - - N 13 17 7 9 1013.0 - -
18/11:00pm 26.0 - - - - E 17 20 9 11 1013.0 - -
18/10:30pm 26.0 - - - - ENE 15 20 8 11 1013.0 - -
18/10:00pm 26.1 - - - - E 17 20 9 11 1012.8 - -
18/09:30pm 26.1 - - - - N 17 24 9 13 1012.7 - -
18/09:00pm 26.1 - - - - SW 11 20 6 11 1012.7 1012.4 -
18/08:30pm 26.1 - - - - SW 7 19 4 10 1012.7 - -
18/08:00pm 26.1 - - - - N 15 20 8 11 1012.2 - -
18/07:30pm 26.2 - - - - NNW 15 19 8 10 1011.9 - -
18/07:00pm 26.1 - - - - N 17 20 9 11 1011.5 1011.3 -
18/06:30pm 26.2 - - - - ENE 19 20 10 11 1011.1 - -
18/06:00pm 26.3 - - - - ENE 15 17 8 9 1011.1 1010.9 -
18/05:30pm 26.4 - - - - NE 15 19 8 10 1010.8 - -
18/05:00pm 26.5 - - - - NE 15 20 8 11 1010.6 1010.3 -
18/04:30pm 26.6 - - - - ENE 13 17 7 9 1010.7 - -
18/04:00pm 26.8 - - - - NE 13 15 7 8 1010.7 1010.3 -
18/03:30pm 26.6 - - - - NE 13 17 7 9 1010.9 - -
18/03:00pm 26.5 - - - - NE 19 20 10 11 1010.9 1010.9 -
18/02:30pm 26.6 - - - - WNW 11 17 6 9 1011.5 - -
18/02:00pm 26.6 - - - - W 9 17 5 9 1011.9 1011.6 -
18/01:30pm 26.8 - - - - W 11 15 6 8 1012.4 - -
18/01:00pm 26.9 - - - - W 11 15 6 8 1012.6 1012.3 -
18/12:00pm 26.7 - - - - W 13 15 7 8 1012.7 1012.7 -
18/11:30am 26.8 - - - - NNE 2 6 1 3 1012.9 - -
18/11:00am 26.5 - - - - CALM 0 6 0 3 1012.9 - -
18/10:30am 26.5 - - - - CALM 0 6 0 3 1013.3 - -
18/10:00am 26.4 - - - - ENE 2 6 1 3 1013.3 1013.0 -
18/09:30am 26.7 - - - - NE 2 6 1 3 1013.6 - -
18/09:00am 26.5 - - - - NE 2 17 1 9 1013.5 1013.3 -
18/08:30am 26.9 - - - - W 11 15 6 8 1013.7 - -
18/08:00am 27.0 - - - - W 11 15 6 8 1013.6 1013.4 -
18/07:30am 27.7 - - - - W 11 13 6 7 1013.5 - -
18/07:00am 27.2 - - - - NE 13 15 7 8 1013.5 1013.2 -
18/06:30am 26.6 - - - - NE 15 17 8 9 1013.2 - -
18/06:00am 26.5 - - - - NE 17 19 9 10 1012.7 1012.6 -
18/05:30am 26.0 - - - - NE 17 19 9 10 1012.2 - -
18/05:00am 25.7 - - - - ENE 15 17 8 9 1012.1 1011.9 -
18/04:30am 25.7 - - - - N 13 15 7 8 1011.5 - -
18/04:00am 25.7 - - - - WNW 15 19 8 10 1011.3 1011.0 -
18/03:30am 25.7 - - - - NW 15 19 8 10 1011.1 - -
18/03:00am 25.8 - - - - NW 15 20 8 11 1011.0 1010.6 -
18/02:30am 25.7 - - - - NW 15 19 8 10 1010.9 - -
18/02:00am 25.8 - - - - WNW 15 17 8 9 1010.5 1010.4 -
18/01:30am 25.8 - - - - NNW 17 20 9 11 1010.4 - -
18/01:00am 25.9 - - - - N 17 20 9 11 1010.9 1010.6 -
18/12:30am 26.0 - - - - WNW 15 19 8 10 1011.0 - -
18/12:00am 26.0 - - - - W 15 17 8 9 1011.2 1010.7 -
 
Date/Time
EST
Temp
°C
App
Temp
°C
Dew
Point
Rel
Hum
%
Delta-T
°C
Wind Press
QNH
hPa
Press
MSL
hPa
Rain
since 9 am
mm
Dir
 
Spd
km/h
Gust
km/h
Spd
kts
Gust
kts
17/11:30pm 26.1 - - - - WNW 15 19 8 10 1011.5 - -
17/11:00pm 26.1 - - - - W 11 15 6 8 1011.7 1011.4 -
17/10:30pm 26.1 - - - - W 13 17 7 9 1011.5 - -
17/10:00pm 26.0 - - - - W 2 9 1 5 1011.4 1011.1 -
17/09:30pm 26.0 - - - - W 2 9 1 5 1011.5 - -
17/09:00pm 26.0 - - - - W 9 13 5 7 1011.2 1011.0 -
17/08:30pm 26.0 - - - - W 4 9 2 5 1010.9 - -
17/08:00pm 26.0 - - - - W 4 9 2 5 1010.7 1010.4 -
17/07:30pm 26.0 - - - - WSW 4 9 2 5 1010.6 - -
17/07:00pm 26.0 - - - - CALM 0 7 0 4 1010.2 1010.0 -
17/06:30pm 26.1 - - - - CALM 0 6 0 3 1009.9 - -
17/06:00pm 26.4 - - - - CALM 0 9 0 5 1009.7 1009.5 -
17/05:30pm 26.8 - - - - CALM 0 4 0 2 1009.4 - -
17/05:00pm 26.7 - - - - CALM 0 4 0 2 1009.3 - -
17/04:30pm 26.5 - - - - CALM 0 2 0 1 1009.2 - -
17/04:00pm 26.7 - - - - CALM 0 6 0 3 1009.0 1008.7 -
17/03:30pm 26.7 - - - - CALM 0 2 0 1 1009.0 - -
17/03:00pm 27.1 - - - - CALM 0 4 0 2 1008.9 - -
17/02:30pm 26.7 - - - - CALM 0 6 0 3 1009.0 - -
17/02:00pm 26.5 - - - - CALM 0 9 0 5 1009.5 1009.1 -
17/01:30pm 27.0 - - - - W 2 7 1 4 1009.3 - -
17/01:00pm 27.8 - - - - W 7 9 4 5 1009.3 1008.8 -
17/12:30pm 27.2 - - - - W 4 7 2 4 1009.7 - -
17/12:00pm 27.4 - - - - W 6 9 3 5 1009.8 1009.6 -
17/11:30am 27.4 - - - - WNW 9 13 5 7 1010.1 - -
17/11:00am 26.6 - - - - W 7 11 4 6 1010.5 1010.2 -
17/10:30am 26.7 - - - - W 7 11 4 6 1010.7 - -
17/10:00am 26.7 - - - - W 9 9 5 5 1010.9 1010.5 -
17/09:30am 26.4 - - - - W 4 7 2 4 1010.9 - -
17/09:00am 26.0 - - - - W 7 11 4 6 1011.2 1010.9 -
17/08:30am 26.1 - - - - W 6 9 3 5 1011.1 - -
17/08:00am 28.0 - - - - W 7 13 4 7 1010.8 1010.5 -
17/07:30am 27.9 - - - - W 7 11 4 6 1010.5 - -
17/07:00am 28.4 - - - - W 7 9 4 5 1010.4 - -
17/06:30am 27.5 - - - - W 7 11 4 6 1010.0 - -
17/06:00am 26.7 - - - - W 11 13 6 7 1009.7 1009.6 -
17/05:30am 25.5 - - - - NNE 11 13 6 7 1009.4 - -
17/05:00am 24.8 - - - - NNE 11 15 6 8 1009.0 1008.8 -
17/04:30am 24.7 - - - - NE 2 6 1 3 1008.7 - -
17/04:00am 24.7 - - - - NNE 2 6 1 3 1008.4 1008.1 -
17/03:30am 24.8 - - - - NNE 2 6 1 3 1008.2 - -
17/03:00am 24.8 - - - - CALM 0 6 0 3 1008.2 1007.9 -
17/02:30am 24.8 - - - - NNE 2 6 1 3 1008.3 - -
17/02:00am 24.9 - - - - NNE 2 6 1 3 1008.4 1008.1 -
17/01:30am 24.8 - - - - NNE 2 6 1 3 1008.6 - -
17/01:00am 24.9 - - - - NE 2 6 1 3 1008.9 1008.5 -
17/12:30am 24.9 - - - - CALM 0 6 0 3 1009.1 - -
17/12:00am 24.9 - - - - CALM 0 7 0 4 1009.4 1009.1 -
 
Date/Time
EST
Temp
°C
App
Temp
°C
Dew
Point
Rel
Hum
%
Delta-T
°C
Wind Press
QNH
hPa
Press
MSL
hPa
Rain
since 9 am
mm
Dir
 
Spd
km/h
Gust
km/h
Spd
kts
Gust
kts
16/11:30pm 24.9 - - - - CALM 0 4 0 2 1009.8 - -
16/11:00pm 25.0 - - - - CALM 0 4 0 2 1010.2 1009.8 -
16/10:30pm 25.1 - - - - ENE 2 4 1 2 1010.3 - -
16/10:00pm 25.2 - - - - CALM 0 2 0 1 1010.5 1010.1 -
16/09:30pm 25.3 - - - - CALM 0 7 0 4 1010.4 - -
16/09:00pm 25.3 - - - - CALM 0 4 0 2 1010.4 1010.1 -
16/08:30pm 25.4 - - - - CALM 0 6 0 3 1010.2 - -
16/08:00pm 25.3 - - - - CALM 0 4 0 2 1010.1 1009.9 -
16/07:30pm 25.4 - - - - CALM 0 6 0 3 1009.8 - -
16/07:00pm 25.3 - - - - SSE 2 4 1 2 1009.5 1009.2 -
16/06:30pm 25.5 - - - - CALM 0 6 0 3 1009.2 - -
16/06:00pm 25.6 - - - - SSE 20 24 11 13 1008.9 1008.6 -
16/05:30pm 25.7 - - - - S 20 24 11 13 1008.7 - -

Other Formats:

Comma delimited format used in spreadsheet applications
http://www.bom.gov.au/fwo/IDQ60801/IDQ60801.94393.axf

JavaScript Object Notation format (JSON) in row-major order
http://www.bom.gov.au/fwo/IDQ60801/IDQ60801.94393.json